Irvington, New Jersey
Current Conditions -  °F | °C
As of 4:51 AM on Saturday 29 Nov 2014 (Local Time) from KEWR Reporting Station
Scattered Clouds Scattered Clouds  
Wind Chill: 18°   Ceiling: Unl
Heat Index: 24°   Visibility: 10mi
Dew Point: 14°   Wind: 5mph
Humidity: 65%   Direction: 270°W
Pressure: 30.32"   Gusts: NA
Location:  40.73°N, 74.23°W
Report Text: KEWR 290951Z 27004KT 10SM SCT250 M04/M10 A3032 RMK AO2 SLP267 T10441100
Loading
Personal Weather Stations






























Interactive Weather Map New forecast layout! Learn more

10-Day Weather Forecast

Advertisements
Track Severe Weather on mobile